Time;durP1;ratioP1;P1;durP2;ratioP2;P2;SDS_P1;SDS_P2;PMS_P1;PMS_P2;Temp;Humidity;BMP_temperature;BMP_pressure;BME280_temperature;BME280_humidity;BME280_pressure;Samples;Min_cycle;Max_cycle;Signal;HPM_P1;HPM_P2
2023/05/20 00:01:24;;;;;;;16.42;6.88;;;;;;;;;;5068640;28;20053;-74
2023/05/20 00:03:56;;;;;;;11.73;6.45;;;;;;;;;;5067014;28;20061;-82
2023/05/20 00:06:28;;;;;;;11.52;6.90;;;;;;;;;;5068558;28;20044;-75
2023/05/20 00:08:58;;;;;;;11.70;6.82;;;;;;;;;;5050105;28;20052;-74
2023/05/20 00:11:28;;;;;;;14.65;7.15;;;;;;;;;;5067780;28;20051;-74
2023/05/20 00:13:59;;;;;;;14.65;5.60;;;;;;;;;;5066059;28;20055;-76
2023/05/20 00:16:31;;;;;;;20.08;6.43;;;;;;;;;;5067240;28;20052;-75
2023/05/20 00:19:01;;;;;;;16.63;7.15;;;;;;;;;;5066536;28;20521;-75
2023/05/20 00:21:32;;;;;;;15.02;5.53;;;;;;;;;;5066410;28;20503;-77
2023/05/20 00:24:03;;;;;;;23.80;5.72;;;;;;;;;;5067398;28;20484;-77
2023/05/20 00:26:35;;;;;;;12.40;5.88;;;;;;;;;;5066977;28;20056;-76
2023/05/20 00:29:07;;;;;;;11.77;6.15;;;;;;;;;;5067043;28;20072;-76
2023/05/20 00:31:38;;;;;;;16.85;6.10;;;;;;;;;;5064576;28;20582;-76
2023/05/20 00:34:10;;;;;;;12.60;6.32;;;;;;;;;;5065795;28;20048;-75
2023/05/20 00:36:41;;;;;;;15.93;5.63;;;;;;;;;;5066692;28;20535;-75
2023/05/20 00:39:13;;;;;;;10.95;5.63;;;;;;;;;;5066651;28;20040;-75
2023/05/20 00:41:43;;;;;;;9.88;5.82;;;;;;;;;;5066861;28;20051;-76
2023/05/20 00:44:15;;;;;;;17.40;6.30;;;;;;;;;;5066861;28;20056;-75
2023/05/20 00:46:48;;;;;;;15.57;6.05;;;;;;;;;;5067135;28;20044;-76
2023/05/20 00:49:21;;;;;;;10.93;7.05;;;;;;;;;;5065982;28;20723;-76
2023/05/20 00:51:52;;;;;;;11.85;6.57;;;;;;;;;;5066728;28;20051;-75
2023/05/20 00:54:24;;;;;;;15.18;5.78;;;;;;;;;;5066051;28;20506;-76
2023/05/20 00:56:58;;;;;;;22.05;6.60;;;;;;;;;;5067069;28;20403;-76
2023/05/20 00:59:30;;;;;;;13.23;6.80;;;;;;;;;;5066868;28;20059;-75
2023/05/20 01:02:01;;;;;;;13.73;6.30;;;;;;;;;;5064426;28;20048;-76
2023/05/20 01:04:33;;;;;;;23.33;7.00;;;;;;;;;;5065861;28;20052;-75
2023/05/20 01:07:06;;;;;;;15.35;6.80;;;;;;;;;;5065395;28;20056;-76
2023/05/20 01:09:37;;;;;;;17.10;7.60;;;;;;;;;;5064828;28;20047;-75
2023/05/20 01:12:23;;;;;;;13.98;6.63;;;;;;;;;;5064244;28;20048;-76
2023/05/20 01:15:06;;;;;;;17.85;6.38;;;;;;;;;;5065999;28;20411;-76
2023/05/20 01:17:47;;;;;;;12.25;6.55;;;;;;;;;;5064894;28;20045;-76
2023/05/20 01:20:20;;;;;;;13.27;8.07;;;;;;;;;;5066336;28;20044;-76
2023/05/20 01:22:56;;;;;;;9.50;6.00;;;;;;;;;;5064674;28;20056;-76
2023/05/20 01:25:27;;;;;;;14.48;6.38;;;;;;;;;;5066107;28;20085;-75
2023/05/20 01:27:58;;;;;;;18.85;6.03;;;;;;;;;;5066032;28;20431;-75
2023/05/20 01:30:34;;;;;;;20.15;7.90;;;;;;;;;;5066075;28;20406;-76
2023/05/20 01:33:12;;;;;;;21.30;6.20;;;;;;;;;;5064471;28;20059;-76
2023/05/20 01:35:44;;;;;;;16.02;6.18;;;;;;;;;;5064593;28;20049;-75
2023/05/20 01:38:17;;;;;;;10.80;7.28;;;;;;;;;;5063582;28;20052;-76
2023/05/20 01:40:48;;;;;;;18.35;7.53;;;;;;;;;;5064308;28;20055;-76
2023/05/20 01:43:20;;;;;;;11.10;6.05;;;;;;;;;;5065909;28;20047;-76
2023/05/20 01:45:51;;;;;;;14.63;5.57;;;;;;;;;;5064074;28;20388;-76
2023/05/20 01:48:23;;;;;;;18.88;5.85;;;;;;;;;;5063657;28;20389;-78
2023/05/20 01:50:54;;;;;;;14.02;6.90;;;;;;;;;;5064650;28;20500;-76
2023/05/20 01:53:24;;;;;;;15.90;7.45;;;;;;;;;;5048151;28;20053;-75
2023/05/20 01:55:56;;;;;;;17.00;6.57;;;;;;;;;;5065633;28;20044;-75
2023/05/20 01:58:29;;;;;;;13.68;7.40;;;;;;;;;;5063700;28;20049;-75
2023/05/20 02:01:00;;;;;;;11.15;5.90;;;;;;;;;;5063422;28;20055;-76
2023/05/20 02:03:31;;;;;;;13.50;7.03;;;;;;;;;;5063859;28;20530;-76
2023/05/20 02:06:03;;;;;;;14.73;7.00;;;;;;;;;;5063712;28;20059;-75
2023/05/20 02:08:34;;;;;;;12.95;6.82;;;;;;;;;;5063317;28;20061;-76
2023/05/20 02:11:06;;;;;;;12.80;5.90;;;;;;;;;;5065237;28;20055;-76
2023/05/20 02:13:37;;;;;;;19.52;7.10;;;;;;;;;;5063060;28;20049;-75
2023/05/20 02:16:09;;;;;;;16.02;6.47;;;;;;;;;;5063071;28;20053;-76
2023/05/20 02:18:41;;;;;;;16.83;9.50;;;;;;;;;;5063116;28;20055;-76
2023/05/20 02:21:16;;;;;;;16.33;9.82;;;;;;;;;;5063349;28;20052;-76
2023/05/20 02:23:46;;;;;;;14.50;5.85;;;;;;;;;;5065416;28;20047;-75
2023/05/20 02:26:17;;;;;;;10.10;6.35;;;;;;;;;;5064852;28;20059;-75
2023/05/20 02:28:49;;;;;;;19.02;9.57;;;;;;;;;;5045802;28;20415;-76
2023/05/20 02:31:22;;;;;;;14.25;8.07;;;;;;;;;;5062229;28;20052;-76
2023/05/20 02:33:52;;;;;;;17.80;11.15;;;;;;;;;;5063083;28;20141;-76
2023/05/20 02:36:23;;;;;;;14.27;7.80;;;;;;;;;;5065266;28;20048;-76
2023/05/20 02:38:55;;;;;;;12.63;7.60;;;;;;;;;;5064896;28;20045;-75
2023/05/20 02:41:26;;;;;;;15.90;8.57;;;;;;;;;;5065341;28;20495;-75
2023/05/20 02:43:57;;;;;;;14.32;9.30;;;;;;;;;;5065595;28;20048;-75
2023/05/20 02:46:30;;;;;;;16.75;8.15;;;;;;;;;;5064636;28;20045;-75
2023/05/20 02:49:02;;;;;;;15.32;8.15;;;;;;;;;;5064656;28;20048;-76
2023/05/20 02:51:32;;;;;;;14.48;8.68;;;;;;;;;;5062779;28;20056;-76
2023/05/20 02:54:03;;;;;;;22.35;13.80;;;;;;;;;;5065184;28;20062;-75
2023/05/20 02:56:34;;;;;;;15.38;12.25;;;;;;;;;;5065229;28;20083;-76
2023/05/20 02:59:06;;;;;;;16.05;10.45;;;;;;;;;;5064903;28;20053;-76
2023/05/20 03:01:36;;;;;;;15.75;12.30;;;;;;;;;;5064713;28;20523;-76
2023/05/20 03:04:06;;;;;;;17.48;11.32;;;;;;;;;;5063324;28;20052;-75
2023/05/20 03:06:37;;;;;;;17.58;11.05;;;;;;;;;;5062855;28;20056;-75
2023/05/20 03:09:08;;;;;;;20.73;11.38;;;;;;;;;;5062662;28;20454;-75
2023/05/20 03:11:40;;;;;;;17.45;9.25;;;;;;;;;;5063191;28;20048;-75
2023/05/20 03:14:10;;;;;;;15.20;10.05;;;;;;;;;;5062352;28;20055;-75
2023/05/20 03:16:40;;;;;;;14.98;8.75;;;;;;;;;;5065108;28;20048;-75
2023/05/20 03:19:11;;;;;;;13.10;8.55;;;;;;;;;;5064719;28;20045;-75
2023/05/20 03:21:42;;;;;;;12.77;9.32;;;;;;;;;;5062341;28;20518;-76
2023/05/20 03:24:14;;;;;;;14.07;8.82;;;;;;;;;;5062252;28;20060;-76
2023/05/20 03:26:47;;;;;;;18.52;8.95;;;;;;;;;;5062396;28;20055;-75
2023/05/20 03:29:18;;;;;;;15.80;10.55;;;;;;;;;;5062250;28;20404;-75
2023/05/20 03:31:48;;;;;;;19.25;10.00;;;;;;;;;;5063790;28;20053;-76
2023/05/20 03:34:20;;;;;;;15.10;8.43;;;;;;;;;;5062663;28;20055;-75
2023/05/20 03:36:51;;;;;;;10.15;7.95;;;;;;;;;;5062803;28;20044;-75
2023/05/20 03:39:21;;;;;;;16.45;8.68;;;;;;;;;;5066000;28;20404;-75
2023/05/20 03:41:52;;;;;;;12.65;7.78;;;;;;;;;;5066446;28;20446;-75
2023/05/20 03:44:23;;;;;;;11.75;7.30;;;;;;;;;;5066093;28;20554;-75
2023/05/20 03:46:54;;;;;;;12.63;8.27;;;;;;;;;;5066042;28;20083;-75
2023/05/20 03:49:24;;;;;;;11.43;8.30;;;;;;;;;;5067715;28;20067;-75
2023/05/20 03:51:55;;;;;;;10.70;6.60;;;;;;;;;;5066539;28;20048;-75
2023/05/20 03:54:30;;;;;;;17.13;8.70;;;;;;;;;;5066612;28;20044;-74
2023/05/20 03:57:01;;;;;;;13.32;7.22;;;;;;;;;;5066060;28;20515;-75
2023/05/20 03:59:32;;;;;;;12.68;7.60;;;;;;;;;;5066118;28;20060;-75
2023/05/20 04:02:03;;;;;;;15.18;8.25;;;;;;;;;;5065741;28;20048;-75
2023/05/20 04:04:34;;;;;;;10.32;6.95;;;;;;;;;;5065835;28;20508;-76
2023/05/20 04:07:06;;;;;;;15.73;8.50;;;;;;;;;;5066202;28;20063;-75
2023/05/20 04:09:37;;;;;;;17.55;8.90;;;;;;;;;;5065534;28;20071;-75
2023/05/20 04:12:10;;;;;;;11.18;6.78;;;;;;;;;;5067620;28;20397;-75
2023/05/20 04:14:41;;;;;;;10.75;7.45;;;;;;;;;;5067154;28;20040;-75
2023/05/20 04:17:11;;;;;;;13.52;7.50;;;;;;;;;;5065845;28;20503;-75
2023/05/20 04:19:43;;;;;;;14.60;7.82;;;;;;;;;;5065360;28;20400;-75
2023/05/20 04:22:15;;;;;;;10.30;6.88;;;;;;;;;;5067734;28;20048;-75
2023/05/20 04:24:46;;;;;;;10.02;7.70;;;;;;;;;;5066061;28;20056;-75
2023/05/20 04:27:16;;;;;;;10.93;7.97;;;;;;;;;;5065362;28;20056;-75
2023/05/20 04:29:46;;;;;;;9.88;7.72;;;;;;;;;;5067203;28;20419;-75
2023/05/20 04:32:18;;;;;;;13.40;7.20;;;;;;;;;;5065379;28;20049;-76
2023/05/20 04:34:49;;;;;;;15.13;8.68;;;;;;;;;;5067283;28;20045;-75
2023/05/20 04:37:21;;;;;;;12.10;8.18;;;;;;;;;;5064968;28;20052;-75
2023/05/20 04:39:51;;;;;;;10.98;7.65;;;;;;;;;;5065739;28;20045;-75
2023/05/20 04:42:21;;;;;;;18.58;8.95;;;;;;;;;;5065236;28;20052;-75
2023/05/20 04:44:51;;;;;;;17.10;8.85;;;;;;;;;;5065451;28;20056;-76
2023/05/20 04:47:21;;;;;;;10.75;7.45;;;;;;;;;;5065064;28;20044;-75
2023/05/20 04:49:56;;;;;;;16.88;9.40;;;;;;;;;;5064368;28;20061;-75
2023/05/20 04:52:27;;;;;;;15.82;7.88;;;;;;;;;;5065597;28;20056;-75
2023/05/20 04:54:57;;;;;;;14.60;9.07;;;;;;;;;;5067200;28;20082;-75
2023/05/20 04:57:28;;;;;;;13.35;8.63;;;;;;;;;;5065026;28;20059;-75
2023/05/20 05:00:00;;;;;;;10.55;7.32;;;;;;;;;;5065382;28;20048;-75
2023/05/20 05:02:31;;;;;;;14.13;8.75;;;;;;;;;;5064262;28;20063;-75
2023/05/20 05:05:03;;;;;;;18.15;9.32;;;;;;;;;;5065196;28;20534;-75
2023/05/20 05:07:35;;;;;;;8.20;6.45;;;;;;;;;;5066413;28;20411;-74
2023/05/20 05:10:05;;;;;;;10.40;8.55;;;;;;;;;;5066761;28;20049;-75
2023/05/20 05:12:36;;;;;;;12.75;9.27;;;;;;;;;;5064540;28;20550;-75
2023/05/20 05:15:05;;;;;;;;;;;;;;;;;;5066684;28;20532;-75
2023/05/20 05:17:36;;;;;;;13.38;7.25;;;;;;;;;;5064864;28;20594;-75
2023/05/20 05:20:08;;;;;;;11.48;6.55;;;;;;;;;;5064410;28;20041;-75
2023/05/20 05:22:41;;;;;;;11.43;8.05;;;;;;;;;;5063424;28;20052;-75
2023/05/20 05:25:11;;;;;;;20.23;8.82;;;;;;;;;;5064299;28;20045;-75
2023/05/20 05:27:43;;;;;;;10.38;8.15;;;;;;;;;;5064508;28;20534;-75
2023/05/20 05:30:14;;;;;;;12.32;7.20;;;;;;;;;;5066053;28;20060;-75
2023/05/20 05:32:45;;;;;;;13.25;8.40;;;;;;;;;;5063732;28;20048;-75
2023/05/20 05:35:15;;;;;;;10.10;6.75;;;;;;;;;;5064409;28;20403;-75
2023/05/20 05:37:46;;;;;;;15.07;8.02;;;;;;;;;;5063806;28;20516;-75
2023/05/20 05:40:18;;;;;;;12.13;6.97;;;;;;;;;;5063922;28;20530;-75
2023/05/20 05:42:49;;;;;;;13.43;7.22;;;;;;;;;;5063759;28;20411;-75
2023/05/20 05:45:20;;;;;;;16.80;6.85;;;;;;;;;;5063878;28;20056;-75
2023/05/20 05:47:49;;;;;;;;;;;;;;;;;;5064301;28;20503;-75
2023/05/20 05:50:20;;;;;;;15.25;7.90;;;;;;;;;;5065423;28;19920;-74
2023/05/20 05:52:51;;;;;;;11.63;6.78;;;;;;;;;;5066142;28;20044;-73
2023/05/20 05:55:22;;;;;;;10.55;6.30;;;;;;;;;;5065779;28;20044;-73
2023/05/20 05:57:54;;;;;;;10.07;6.28;;;;;;;;;;5063711;28;20053;-74
2023/05/20 06:00:24;;;;;;;10.13;7.53;;;;;;;;;;5063810;28;20048;-74
2023/05/20 06:02:55;;;;;;;11.07;6.78;;;;;;;;;;5063368;28;20064;-73
2023/05/20 06:05:33;;;;;;;10.68;6.05;;;;;;;;;;5063874;28;20518;-74
2023/05/20 06:08:04;;;;;;;10.70;6.07;;;;;;;;;;5065940;28;20049;-74
2023/05/20 06:10:36;;;;;;;10.30;7.28;;;;;;;;;;5063835;28;20087;-74
2023/05/20 06:13:08;;;;;;;11.82;6.95;;;;;;;;;;5065098;28;20040;-74
2023/05/20 06:15:40;;;;;;;11.88;8.32;;;;;;;;;;5063514;28;20057;-74
2023/05/20 06:18:11;;;;;;;14.98;8.48;;;;;;;;;;5062843;28;20071;-74
2023/05/20 06:20:42;;;;;;;12.35;7.80;;;;;;;;;;5063462;28;20514;-75
2023/05/20 06:23:12;;;;;;;10.77;6.80;;;;;;;;;;5063727;28;20423;-74
2023/05/20 06:25:51;;;;;;;10.68;7.18;;;;;;;;;;5063765;28;20063;-74
2023/05/20 06:28:23;;;;;;;12.60;8.20;;;;;;;;;;5063175;28;20538;-74
2023/05/20 06:30:56;;;;;;;11.75;8.23;;;;;;;;;;5063279;28;20060;-74
2023/05/20 06:33:31;;;;;;;12.70;7.82;;;;;;;;;;5062713;28;20056;-74
2023/05/20 06:36:07;;;;;;;14.23;7.90;;;;;;;;;;5063097;28;20561;-74
2023/05/20 06:38:37;;;;;;;14.10;7.53;;;;;;;;;;5063174;28;20523;-74
2023/05/20 06:41:07;;;;;;;9.60;6.07;;;;;;;;;;5063353;28;20055;-74
2023/05/20 06:43:39;;;;;;;10.40;7.70;;;;;;;;;;5065238;28;20056;-74
2023/05/20 06:46:29;;;;;;;7.47;5.15;;;;;;;;;;5064348;28;20415;-74
2023/05/20 06:49:06;;;;;;;10.75;7.30;;;;;;;;;;5063032;28;20071;-74
2023/05/20 06:51:36;;;;;;;8.00;5.55;;;;;;;;;;5063073;28;20471;-74
2023/05/20 06:54:06;;;;;;;11.02;7.18;;;;;;;;;;5063440;28;20060;-74
2023/05/20 06:56:37;;;;;;;10.63;6.60;;;;;;;;;;5065385;28;20087;-74
2023/05/20 06:59:07;;;;;;;10.77;6.97;;;;;;;;;;5063864;28;20048;-74
2023/05/20 07:01:38;;;;;;;9.43;6.40;;;;;;;;;;5062688;28;20052;-74
2023/05/20 07:04:09;;;;;;;10.95;7.43;;;;;;;;;;5063096;28;20057;-74
2023/05/20 07:06:39;;;;;;;11.70;6.57;;;;;;;;;;5064558;28;20053;-74
2023/05/20 07:09:09;;;;;;;11.27;8.45;;;;;;;;;;5064826;28;20541;-74
2023/05/20 07:11:39;;;;;;;13.55;7.18;;;;;;;;;;5063277;28;20770;-74
2023/05/20 07:14:10;;;;;;;18.80;7.68;;;;;;;;;;5064623;28;20604;-74
2023/05/20 07:16:43;;;;;;;14.00;7.97;;;;;;;;;;5066815;28;20534;-74
2023/05/20 07:19:14;;;;;;;18.50;8.70;;;;;;;;;;5066412;28;20059;-74
2023/05/20 07:21:45;;;;;;;15.63;9.13;;;;;;;;;;5065793;28;20063;-74
2023/05/20 07:24:25;;;;;;;11.88;8.48;;;;;;;;;;5068574;28;20044;-74
2023/05/20 07:26:56;;;;;;;16.35;8.88;;;;;;;;;;5066876;28;20052;-74
2023/05/20 07:29:27;;;;;;;9.85;7.30;;;;;;;;;;5068746;28;20515;-74
2023/05/20 07:31:58;;;;;;;10.68;7.05;;;;;;;;;;5066602;28;20055;-74
2023/05/20 07:34:28;;;;;;;12.98;8.32;;;;;;;;;;5068156;28;20048;-74
2023/05/20 07:37:00;;;;;;;14.35;7.70;;;;;;;;;;5067624;28;20056;-74
2023/05/20 07:39:30;;;;;;;10.27;6.68;;;;;;;;;;5066379;28;20048;-74
2023/05/20 07:42:01;;;;;;;10.02;7.30;;;;;;;;;;5066348;28;20048;-74
2023/05/20 07:44:32;;;;;;;11.85;7.60;;;;;;;;;;5067012;28;20048;-74
2023/05/20 07:47:02;;;;;;;;;;;;;;;;;;5068259;28;20052;-74
2023/05/20 07:49:34;;;;;;;13.10;7.68;;;;;;;;;;5099231;28;20399;-74
2023/05/20 07:52:04;;;;;;;9.75;6.68;;;;;;;;;;5065961;28;20531;-74
2023/05/20 07:54:34;;;;;;;18.05;9.13;;;;;;;;;;5067534;28;20044;-74
2023/05/20 07:57:05;;;;;;;18.33;8.40;;;;;;;;;;5065995;28;20131;-74
2023/05/20 07:59:35;;;;;;;12.95;8.77;;;;;;;;;;5066399;28;20063;-74
2023/05/20 08:02:06;;;;;;;12.38;8.55;;;;;;;;;;5066679;28;20055;-74
2023/05/20 08:04:36;;;;;;;18.98;9.13;;;;;;;;;;5067909;28;20049;-74
2023/05/20 08:07:07;;;;;;;13.43;8.73;;;;;;;;;;5065774;28;20056;-74
2023/05/20 08:09:45;;;;;;;13.93;9.02;;;;;;;;;;5051228;28;20060;-74
2023/05/20 08:12:16;;;;;;;12.50;8.68;;;;;;;;;;5065601;28;20056;-74
2023/05/20 08:14:46;;;;;;;10.68;7.70;;;;;;;;;;5066163;28;20056;-74
2023/05/20 08:17:16;;;;;;;16.90;8.00;;;;;;;;;;5067822;28;20045;-74
2023/05/20 08:19:46;;;;;;;32.83;8.07;;;;;;;;;;5065529;28;20048;-74
2023/05/20 08:22:20;;;;;;;51.70;9.82;;;;;;;;;;5067094;28;20053;-74
2023/05/20 08:24:50;;;;;;;19.80;9.35;;;;;;;;;;5064784;28;20063;-74
2023/05/20 08:27:20;;;;;;;12.65;7.80;;;;;;;;;;5064908;28;20056;-74
2023/05/20 08:29:51;;;;;;;11.27;7.60;;;;;;;;;;5067210;28;20052;-74
2023/05/20 08:32:22;;;;;;;12.90;7.75;;;;;;;;;;5065296;28;20415;-74
2023/05/20 08:34:53;;;;;;;14.13;8.10;;;;;;;;;;5065711;28;20044;-74
2023/05/20 08:37:25;;;;;;;12.27;7.70;;;;;;;;;;5065080;28;20067;-74
2023/05/20 08:39:54;;;;;;;;;;;;;;;;;;5065371;28;20057;-74
2023/05/20 08:42:25;;;;;;;24.40;7.57;;;;;;;;;;5065177;28;20394;-74
2023/05/20 08:44:58;;;;;;;28.42;7.75;;;;;;;;;;5065504;28;20059;-74
2023/05/20 08:47:31;;;;;;;13.60;7.70;;;;;;;;;;5065199;28;20059;-74
2023/05/20 08:50:02;;;;;;;17.23;6.53;;;;;;;;;;5067038;28;20044;-74
2023/05/20 08:52:34;;;;;;;16.67;7.35;;;;;;;;;;5064928;28;20044;-74
2023/05/20 08:55:08;;;;;;;23.25;8.82;;;;;;;;;;5066980;28;20055;-74
2023/05/20 08:57:41;;;;;;;35.42;8.25;;;;;;;;;;5065099;28;20051;-74
2023/05/20 09:00:14;;;;;;;26.45;8.63;;;;;;;;;;5066323;28;20052;-74
2023/05/20 09:02:45;;;;;;;20.17;7.60;;;;;;;;;;5098395;28;20044;-74
2023/05/20 09:05:17;;;;;;;35.72;7.93;;;;;;;;;;5066461;28;20057;-75
2023/05/20 09:07:47;;;;;;;47.20;9.82;;;;;;;;;;5066706;28;20048;-75
2023/05/20 09:10:19;;;;;;;26.98;9.20;;;;;;;;;;5066506;28;20048;-75
2023/05/20 09:12:49;;;;;;;58.63;8.15;;;;;;;;;;5066578;28;20597;-75
2023/05/20 09:15:20;;;;;;;17.85;6.32;;;;;;;;;;5066302;28;20048;-75
2023/05/20 09:17:50;;;;;;;18.85;7.15;;;;;;;;;;5065036;28;20511;-75
2023/05/20 09:20:22;;;;;;;42.05;7.35;;;;;;;;;;5066271;28;20400;-75
2023/05/20 09:22:52;;;;;;;27.88;7.85;;;;;;;;;;5064232;28;20052;-75
2023/05/20 09:25:22;;;;;;;15.15;7.90;;;;;;;;;;5066306;28;20041;-75
2023/05/20 09:27:53;;;;;;;20.38;7.70;;;;;;;;;;5066122;28;20040;-76
2023/05/20 09:30:24;;;;;;;11.65;7.13;;;;;;;;;;5065805;28;20052;-75
2023/05/20 09:32:56;;;;;;;11.02;7.03;;;;;;;;;;5065726;28;20048;-76
2023/05/20 09:35:27;;;;;;;17.77;7.70;;;;;;;;;;5063955;28;20091;-75
2023/05/20 09:37:58;;;;;;;14.20;7.78;;;;;;;;;;5065497;28;20885;-75
2023/05/20 09:40:30;;;;;;;32.65;8.45;;;;;;;;;;5066391;28;20045;-75
2023/05/20 09:43:10;;;;;;;13.40;7.10;;;;;;;;;;5065984;28;20439;-75
2023/05/20 09:45:41;;;;;;;11.07;6.70;;;;;;;;;;5064199;28;20048;-77
2023/05/20 09:48:11;;;;;;;12.65;7.30;;;;;;;;;;5065315;28;20075;-75
2023/05/20 09:50:43;;;;;;;20.35;7.70;;;;;;;;;;5065793;28;20502;-75
2023/05/20 09:53:15;;;;;;;18.58;6.93;;;;;;;;;;5065812;28;20111;-75
2023/05/20 09:55:46;;;;;;;14.80;7.65;;;;;;;;;;5066306;28;20047;-76
2023/05/20 09:58:17;;;;;;;13.20;6.47;;;;;;;;;;5065944;28;20589;-75
2023/05/20 10:00:48;;;;;;;8.98;6.90;;;;;;;;;;5047343;28;20048;-75
2023/05/20 10:03:26;;;;;;;10.23;6.78;;;;;;;;;;5065747;28;20052;-76
2023/05/20 10:05:56;;;;;;;10.43;6.85;;;;;;;;;;5065525;28;20119;-75
2023/05/20 10:08:33;;;;;;;;;;;;;;;;;;5064641;28;20392;-75
2023/05/20 10:11:11;;;;;;;9.60;6.85;;;;;;;;;;5063911;28;19932;-76
2023/05/20 10:14:01;;;;;;;8.50;6.53;;;;;;;;;;5065642;28;20041;-76
2023/05/20 10:16:31;;;;;;;8.10;5.70;;;;;;;;;;5065550;28;20045;-76
2023/05/20 10:19:14;;;;;;;10.88;6.07;;;;;;;;;;5065376;28;20091;-75
2023/05/20 10:22:00;;;;;;;9.18;5.60;;;;;;;;;;5065251;28;20063;-79
2023/05/20 10:24:42;;;;;;;11.45;6.53;;;;;;;;;;5065385;28;20044;-75
2023/05/20 10:27:16;;;;;;;16.38;6.82;;;;;;;;;;5065047;28;20044;-75
2023/05/20 10:29:56;;;;;;;11.55;6.82;;;;;;;;;;5064921;28;20076;-75
2023/05/20 10:32:31;;;;;;;11.05;6.95;;;;;;;;;;5065637;28;20052;-75
2023/05/20 10:35:09;;;;;;;14.70;6.50;;;;;;;;;;5065280;28;20052;-76
2023/05/20 10:37:49;;;;;;;9.75;7.07;;;;;;;;;;5064698;28;20056;-75
2023/05/20 10:40:22;;;;;;;9.20;5.93;;;;;;;;;;5064260;28;20040;-75
2023/05/20 10:42:53;;;;;;;17.63;6.88;;;;;;;;;;5064500;28;20053;-76
2023/05/20 10:45:31;;;;;;;14.48;6.72;;;;;;;;;;5064955;28;20499;-75
2023/05/20 10:48:04;;;;;;;11.40;7.50;;;;;;;;;;5064546;28;20057;-78
2023/05/20 10:50:37;;;;;;;10.38;6.80;;;;;;;;;;5064898;28;20048;-77
2023/05/20 10:53:12;;;;;;;10.57;7.57;;;;;;;;;;5065067;28;20044;-74
2023/05/20 10:56:02;;;;;;;17.98;9.10;;;;;;;;;;5065109;28;20404;-75
2023/05/20 10:58:38;;;;;;;11.82;8.27;;;;;;;;;;5064808;28;20048;-75
2023/05/20 11:01:10;;;;;;;12.75;8.45;;;;;;;;;;5063099;28;20060;-74
2023/05/20 11:03:47;;;;;;;12.50;7.47;;;;;;;;;;5064865;28;20056;-75
2023/05/20 11:06:20;;;;;;;12.23;6.05;;;;;;;;;;5064992;28;20055;-75
2023/05/20 11:08:50;;;;;;;9.52;6.70;;;;;;;;;;5064163;28;20048;-75
2023/05/20 11:11:21;;;;;;;9.90;6.38;;;;;;;;;;5064196;28;20052;-76
2023/05/20 11:13:56;;;;;;;9.07;6.95;;;;;;;;;;5064702;28;20044;-77
2023/05/20 11:16:34;;;;;;;12.82;6.45;;;;;;;;;;5063921;28;20045;-75
2023/05/20 11:19:17;;;;;;;13.40;7.65;;;;;;;;;;5064486;28;20557;-75
2023/05/20 11:21:50;;;;;;;11.38;6.53;;;;;;;;;;5065171;28;20049;-77
2023/05/20 11:24:26;;;;;;;8.73;6.53;;;;;;;;;;5064324;28;20056;-76
2023/05/20 11:26:59;;;;;;;11.57;7.03;;;;;;;;;;5064666;28;20059;-75
2023/05/20 11:29:31;;;;;;;5.93;5.10;;;;;;;;;;5064134;28;20647;-75
2023/05/20 11:32:02;;;;;;;8.50;4.80;;;;;;;;;;5062654;28;20550;-75
2023/05/20 11:34:37;;;;;;;7.03;5.78;;;;;;;;;;5064304;28;20059;-75
2023/05/20 11:37:09;;;;;;;12.82;6.80;;;;;;;;;;5064890;28;20519;-76
2023/05/20 11:39:40;;;;;;;13.60;7.18;;;;;;;;;;5064790;28;20044;-76
2023/05/20 11:42:16;;;;;;;16.92;7.88;;;;;;;;;;5064648;28;20048;-76
2023/05/20 11:44:47;;;;;;;13.25;5.50;;;;;;;;;;5062132;28;20055;-77
2023/05/20 11:47:28;;;;;;;17.60;5.57;;;;;;;;;;5062551;28;20048;-75
2023/05/20 11:49:59;;;;;;;12.38;5.75;;;;;;;;;;5064403;28;20044;-76
2023/05/20 11:52:33;;;;;;;10.07;6.50;;;;;;;;;;5062654;28;20063;-77
2023/05/20 11:55:04;;;;;;;10.95;7.25;;;;;;;;;;5064199;28;20056;-76
2023/05/20 11:57:35;;;;;;;13.18;6.32;;;;;;;;;;5063164;28;20052;-76
2023/05/20 12:00:09;;;;;;;13.45;6.72;;;;;;;;;;5064031;28;20057;-77
2023/05/20 12:02:40;;;;;;;11.73;6.97;;;;;;;;;;5067564;28;20053;-76
2023/05/20 12:05:10;;;;;;;12.80;6.85;;;;;;;;;;5067837;28;20048;-75
2023/05/20 12:07:42;;;;;;;13.30;7.63;;;;;;;;;;5067887;28;20052;-77
2023/05/20 12:10:13;;;;;;;11.63;6.40;;;;;;;;;;5068018;28;20522;-77
2023/05/20 12:12:44;;;;;;;10.52;5.97;;;;;;;;;;5067466;28;20061;-77
2023/05/20 12:15:14;;;;;;;17.45;7.38;;;;;;;;;;5067358;28;20530;-77
2023/05/20 12:17:49;;;;;;;7.32;6.00;;;;;;;;;;5067314;28;20064;-76
2023/05/20 12:20:24;;;;;;;8.68;6.30;;;;;;;;;;5067305;28;20590;-77
2023/05/20 12:22:58;;;;;;;13.32;7.05;;;;;;;;;;5066260;28;20863;-76
2023/05/20 12:25:28;;;;;;;10.45;6.80;;;;;;;;;;5067765;28;20067;-77
2023/05/20 12:28:01;;;;;;;9.23;5.97;;;;;;;;;;5067603;28;20040;-76
2023/05/20 12:30:33;;;;;;;15.73;6.15;;;;;;;;;;5067275;28;20048;-79
2023/05/20 12:33:04;;;;;;;9.60;6.40;;;;;;;;;;5067327;28;20059;-76
2023/05/20 12:35:41;;;;;;;10.30;6.30;;;;;;;;;;5067041;28;20052;-76
2023/05/20 12:38:13;;;;;;;14.02;7.93;;;;;;;;;;5067311;28;20068;-75
2023/05/20 12:40:43;;;;;;;11.90;6.07;;;;;;;;;;5067369;28;20044;-76
2023/05/20 12:43:15;;;;;;;15.52;6.32;;;;;;;;;;5067729;28;20530;-75
2023/05/20 12:45:45;;;;;;;7.50;5.32;;;;;;;;;;5065559;28;20040;-76
2023/05/20 12:48:18;;;;;;;8.57;4.90;;;;;;;;;;5066867;28;20048;-76
2023/05/20 12:50:48;;;;;;;12.40;5.38;;;;;;;;;;5064540;28;20064;-76
2023/05/20 12:53:20;;;;;;;14.68;5.78;;;;;;;;;;5066417;28;20041;-76
2023/05/20 12:55:50;;;;;;;9.30;4.40;;;;;;;;;;5066851;28;20048;-76
2023/05/20 12:58:22;;;;;;;8.27;5.18;;;;;;;;;;5066882;28;20511;-76
2023/05/20 13:00:53;;;;;;;15.30;4.85;;;;;;;;;;5064632;28;20052;-76
2023/05/20 13:03:23;;;;;;;7.68;3.90;;;;;;;;;;5066466;28;20049;-76
2023/05/20 13:05:53;;;;;;;12.75;8.35;;;;;;;;;;5066385;28;20051;-77
2023/05/20 13:08:25;;;;;;;9.90;5.18;;;;;;;;;;5066271;28;20496;-75
2023/05/20 13:10:57;;;;;;;6.55;4.43;;;;;;;;;;5066239;28;20040;-76
2023/05/20 13:13:27;;;;;;;7.03;4.70;;;;;;;;;;5066582;28;20495;-76
2023/05/20 13:15:57;;;;;;;14.02;8.18;;;;;;;;;;5066484;28;20055;-77
2023/05/20 13:18:27;;;;;;;12.57;3.92;;;;;;;;;;5066700;28;20055;-75
2023/05/20 13:20:59;;;;;;;12.50;4.38;;;;;;;;;;5066244;28;20059;-75
2023/05/20 13:23:29;;;;;;;9.88;3.72;;;;;;;;;;5066360;28;20040;-76
2023/05/20 13:25:59;;;;;;;8.13;3.63;;;;;;;;;;5066119;28;20052;-75
2023/05/20 13:28:30;;;;;;;5.78;3.55;;;;;;;;;;5066141;28;20055;-76
2023/05/20 13:31:05;;;;;;;6.00;3.67;;;;;;;;;;5066214;28;20048;-76
2023/05/20 13:33:37;;;;;;;10.23;4.20;;;;;;;;;;5066315;28;20055;-76
2023/05/20 13:36:08;;;;;;;9.00;3.90;;;;;;;;;;5066424;28;20060;-76
2023/05/20 13:38:38;;;;;;;7.78;3.63;;;;;;;;;;5064189;28;20052;-76
2023/05/20 13:41:10;;;;;;;6.35;3.97;;;;;;;;;;5065587;28;20523;-76
2023/05/20 13:43:42;;;;;;;7.47;3.70;;;;;;;;;;5065942;28;20048;-75
2023/05/20 13:46:12;;;;;;;9.02;3.83;;;;;;;;;;5066091;28;20045;-78
2023/05/20 13:48:43;;;;;;;9.40;3.80;;;;;;;;;;5065570;28;20044;-79
2023/05/20 13:51:13;;;;;;;12.02;4.90;;;;;;;;;;5064204;28;20055;-76
2023/05/20 13:53:43;;;;;;;7.13;3.20;;;;;;;;;;5065423;28;20407;-75
2023/05/20 13:56:15;;;;;;;5.88;3.63;;;;;;;;;;5065603;28;20044;-73
2023/05/20 13:58:45;;;;;;;10.50;4.20;;;;;;;;;;5066298;28;20561;-74
2023/05/20 14:01:15;;;;;;;4.47;3.33;;;;;;;;;;5063092;28;20052;-75
2023/05/20 14:03:46;;;;;;;4.70;3.17;;;;;;;;;;5064779;28;20049;-75
2023/05/20 14:06:17;;;;;;;10.00;4.20;;;;;;;;;;5065744;28;20055;-74
2023/05/20 14:08:48;;;;;;;9.73;3.13;;;;;;;;;;5065162;28;20052;-74
2023/05/20 14:11:20;;;;;;;9.77;6.47;;;;;;;;;;5065382;28;20052;-76
2023/05/20 14:13:50;;;;;;;10.23;7.20;;;;;;;;;;5065351;28;20053;-75
2023/05/20 14:16:20;;;;;;;11.65;3.35;;;;;;;;;;5064333;28;20055;-73
2023/05/20 14:18:52;;;;;;;5.78;3.60;;;;;;;;;;5063309;28;20056;-75
2023/05/20 14:21:22;;;;;;;6.82;3.45;;;;;;;;;;5065403;28;20059;-74
2023/05/20 14:23:52;;;;;;;4.90;3.83;;;;;;;;;;5062202;28;20075;-75
2023/05/20 14:26:23;;;;;;;6.72;3.72;;;;;;;;;;5065001;28;20044;-74
2023/05/20 14:28:56;;;;;;;11.95;3.95;;;;;;;;;;5065015;28;20415;-75
2023/05/20 14:31:27;;;;;;;9.40;3.72;;;;;;;;;;5065247;28;20150;-75
2023/05/20 14:33:57;;;;;;;8.90;4.10;;;;;;;;;;5065020;28;20040;-74
2023/05/20 14:36:27;;;;;;;13.70;4.25;;;;;;;;;;5065484;28;20504;-74
2023/05/20 14:38:57;;;;;;;8.93;3.78;;;;;;;;;;5065157;28;20419;-80
2023/05/20 14:41:28;;;;;;;7.28;3.58;;;;;;;;;;5065051;28;20127;-76
2023/05/20 14:44:00;;;;;;;5.07;3.28;;;;;;;;;;5065450;28;20741;-76
2023/05/20 14:46:37;;;;;;;5.63;2.75;;;;;;;;;;5064084;28;20044;-75
2023/05/20 14:49:08;;;;;;;10.30;3.50;;;;;;;;;;5065182;28;20045;-76
2023/05/20 14:51:38;;;;;;;7.35;3.63;;;;;;;;;;5064776;28;20051;-75
2023/05/20 14:54:10;;;;;;;5.00;2.90;;;;;;;;;;5064794;28;20071;-76
2023/05/20 14:56:41;;;;;;;4.07;3.30;;;;;;;;;;5065374;28;20045;-76
2023/05/20 14:59:12;;;;;;;8.98;3.22;;;;;;;;;;5064872;28;21154;-76
2023/05/20 15:01:43;;;;;;;9.40;3.22;;;;;;;;;;5064689;28;20048;-75